Time;durP1;ratioP1;P1;durP2;ratioP2;P2;SDS_P1;SDS_P2;PMS_P1;PMS_P2;Temp;Humidity;BMP_temperature;BMP_pressure;BME280_temperature;BME280_humidity;BME280_pressure;Samples;Min_cycle;Max_cycle;Signal;HPM_P1;HPM_P2
2022/11/25 00:00:11;;;;;;;107.25;25.33;;;;;;;1.70;100.00;147156.84;4967184;28;20523;-78
2022/11/25 00:02:42;;;;;;;42.17;23.58;;;;;;;1.71;100.00;145975.91;4967962;28;20034;-77
2022/11/25 00:05:08;;;;;;;47.15;23.23;;;;;;;1.83;100.00;144716.13;4983497;28;20129;-77
2022/11/25 00:07:37;;;;;;;62.55;24.95;;;;;;;1.75;100.00;144277.22;4995651;28;20113;-77
2022/11/25 00:10:04;;;;;;;52.72;26.95;;;;;;;1.77;100.00;143946.28;4989529;28;20113;-77
2022/11/25 00:12:30;;;;;;;53.22;24.70;;;;;;;1.69;100.00;144931.94;4973374;28;20116;-77
2022/11/25 00:14:56;;;;;;;50.17;26.95;;;;;;;1.69;100.00;144262.81;4985676;28;20026;-78
2022/11/25 00:17:21;;;;;;;61.78;27.30;;;;;;;1.61;100.00;143241.47;4959263;28;20038;-78
2022/11/25 00:19:47;;;;;;;53.42;27.88;;;;;;;1.68;100.00;142589.34;4974214;28;20050;-78
2022/11/25 00:22:14;;;;;;;78.22;27.85;;;;;;;1.66;100.00;141580.44;4973809;28;20296;-77
2022/11/25 00:24:40;;;;;;;46.58;25.17;;;;;;;1.65;100.00;140575.31;4971877;28;20081;-77
2022/11/25 00:27:05;;;;;;;58.00;25.30;;;;;;;1.70;100.00;139585.59;4972940;28;20088;-79
2022/11/25 00:29:33;;;;;;;109.13;28.25;;;;;;;1.64;100.00;138568.22;4982825;28;20807;-77
2022/11/25 00:31:58;;;;;;;63.78;27.02;;;;;;;1.61;100.00;138895.38;4978719;28;20166;-79
2022/11/25 00:34:24;;;;;;;57.78;27.23;;;;;;;1.65;100.00;137902.53;4993283;28;20035;-78
2022/11/25 00:36:52;;;;;;;65.45;27.17;;;;;;;1.61;100.00;137893.34;4981650;28;20039;-77
2022/11/25 00:39:18;;;;;;;116.65;31.17;;;;;;;1.61;100.00;137226.59;4976644;28;20046;-78
2022/11/25 00:44:36;;;;;;;66.97;26.02;;;;;;;1.58;100.00;136218.16;4979192;28;20030;-77
2022/11/25 00:47:03;;;;;;;61.92;25.20;;;;;;;1.54;100.00;136542.91;4990094;28;20030;-77
2022/11/25 00:49:29;;;;;;;48.55;25.40;;;;;;;1.50;100.00;136534.97;4977928;28;20042;-80
2022/11/25 00:51:55;;;;;;;68.05;28.50;;;;;;;1.48;100.00;136196.66;4971943;28;20648;-79
2022/11/25 00:54:20;;;;;;;69.03;28.27;;;;;;;1.41;100.00;135847.06;4977315;28;20408;-80
2022/11/25 00:56:47;;;;;;;72.05;29.30;;;;;;;1.41;100.00;134845.00;4978898;28;20058;-78
2022/11/25 00:59:13;;;;;;;55.88;26.80;;;;;;;1.38;100.00;135506.66;5008105;28;20162;-78
2022/11/25 01:01:39;;;;;;;79.25;26.85;;;;;;;1.36;100.00;135169.63;4977899;28;20699;-77
2022/11/25 01:04:06;;;;;;;51.40;24.25;;;;;;;1.35;100.00;135166.25;4992912;28;20074;-77
2022/11/25 01:06:32;;;;;;;71.35;27.08;;;;;;;1.31;100.00;135158.38;4978784;28;20502;-76
2022/11/25 01:08:58;;;;;;;53.17;28.05;;;;;;;1.34;100.00;134830.44;5006158;28;20045;-78
2022/11/25 01:11:24;;;;;;;58.83;28.33;;;;;;;1.36;100.00;134167.78;4977825;28;20340;-77
2022/11/25 01:13:50;;;;;;;54.50;27.52;;;;;;;1.35;100.00;133498.53;4963147;28;20038;-77
2022/11/25 01:16:18;;;;;;;62.58;26.60;;;;;;;1.36;100.00;133168.41;4962048;28;20035;-77
2022/11/25 01:18:46;;;;;;;55.20;28.98;;;;;;;1.35;100.00;132165.94;4976153;28;20047;-77
2022/11/25 01:21:23;;;;;;;67.60;28.67;;;;;;;1.32;100.00;131826.03;4990722;28;20130;-78
2022/11/25 01:23:49;;;;;;;72.32;29.73;;;;;;;1.33;100.00;130827.25;5012660;28;20092;-77
2022/11/25 01:26:18;;;;;;;68.88;29.88;;;;;;;1.30;100.00;130488.63;4979223;28;20733;-79
2022/11/25 01:28:44;;;;;;;58.53;29.80;;;;;;;1.30;100.00;129154.91;4962788;28;20141;-78
2022/11/25 01:31:19;;;;;;;65.30;29.30;;;;;;;1.30;100.00;127823.81;4978222;28;20043;-78
2022/11/25 01:33:47;;;;;;;70.63;29.17;;;;;;;1.30;100.00;126824.97;4974769;28;20074;-77
2022/11/25 01:36:16;;;;;;;75.80;30.73;;;;;;;1.38;100.00;125509.16;4992707;28;20100;-78
2022/11/25 01:38:43;;;;;;;67.78;28.75;;;;;;;1.43;100.00;124188.31;5005820;28;20138;-77
2022/11/25 01:41:13;;;;;;;79.63;30.65;;;;;;;1.38;100.00;125176.34;4974195;28;20038;-75
2022/11/25 01:43:39;;;;;;;74.32;30.98;;;;;;;1.38;100.00;124509.72;4992603;28;20089;-77
2022/11/25 01:46:25;;;;;;;80.88;33.58;;;;;;;1.39;100.00;124180.03;4974250;28;20034;-77
2022/11/25 01:49:05;;;;;;;104.60;31.98;;;;;;;1.46;100.00;122863.56;4969448;28;20547;-75
2022/11/25 01:51:42;;;;;;;66.93;29.25;;;;;;;1.47;100.00;122200.31;4991108;28;20121;-79
2022/11/25 01:54:12;;;;;;;70.80;29.80;;;;;;;1.44;100.00;121860.63;4970771;28;20130;-78
2022/11/25 01:56:51;;;;;;;77.35;31.58;;;;;;;1.38;100.00;121516.97;4976654;28;20046;-78
2022/11/25 01:59:17;;;;;;;73.38;32.70;;;;;;;1.40;100.00;121521.00;4959615;28;20076;-78
2022/11/25 02:01:43;;;;;;;74.28;32.58;;;;;;;1.41;100.00;121189.47;4971511;28;20039;-76
2022/11/25 02:04:12;;;;;;;65.57;31.48;;;;;;;1.41;100.00;120193.06;4973654;28;20400;-79
2022/11/25 02:06:46;;;;;;;61.50;29.55;;;;;;;1.52;100.00;118884.28;4974582;28;20764;-79
2022/11/25 02:09:14;;;;;;;68.57;32.50;;;;;;;1.47;100.00;118875.41;4991380;28;20038;-80
2022/11/25 02:11:42;;;;;;;60.80;29.13;;;;;;;1.45;100.00;119202.81;4976389;28;20050;-78
2022/11/25 02:14:11;;;;;;;62.60;30.70;;;;;;;1.56;100.00;117895.06;4974993;28;20045;-78
2022/11/25 02:16:37;;;;;;;82.82;33.38;;;;;;;1.58;100.00;118230.34;4987810;28;20041;-78
2022/11/25 02:19:04;;;;;;;138.30;34.30;;;;;;;1.57;100.00;117232.44;4964771;28;20368;-78
2022/11/25 02:21:40;;;;;;;70.30;32.75;;;;;;;1.53;100.00;118221.53;4962630;28;20030;-78
2022/11/25 02:24:15;;;;;;;77.90;32.17;;;;;;;1.53;100.00;117225.63;4992920;28;20051;-78
2022/11/25 02:26:41;;;;;;;67.85;31.52;;;;;;;1.49;100.00;116885.63;4965450;28;20130;-76
2022/11/25 02:29:07;;;;;;;255.00;41.00;;;;;;;1.43;100.00;117869.66;4972396;28;20058;-77
2022/11/25 02:31:33;;;;;;;74.53;32.65;;;;;;;1.45;100.00;116877.91;4975075;28;20058;-79
2022/11/25 02:33:59;;;;;;;133.00;33.00;;;;;;;1.49;100.00;116553.44;4988379;28;20043;-78
2022/11/25 02:36:24;;;;;;;65.72;32.05;;;;;;;1.50;100.00;115558.94;4958387;28;20101;-77
2022/11/25 02:38:59;;;;;;;69.72;29.30;;;;;;;1.57;100.00;115239.28;4982230;28;20133;-77
2022/11/25 02:41:38;;;;;;;77.57;33.05;;;;;;;1.49;100.00;115557.03;4990597;28;20061;-79
2022/11/25 02:44:05;;;;;;;86.18;30.10;;;;;;;1.51;100.00;115559.91;4987574;28;20045;-79
2022/11/25 02:46:31;;;;;;;79.50;32.85;;;;;;;1.48;100.00;116550.53;4980249;28;20046;-77
2022/11/25 02:49:00;;;;;;;108.05;32.58;;;;;;;1.52;100.00;116226.09;4987020;28;20488;-77
2022/11/25 02:51:29;;;;;;;104.18;35.22;;;;;;;1.57;100.00;114906.22;4975269;28;20041;-80
2022/11/25 02:53:57;;;;;;;76.38;32.80;;;;;;;1.57;100.00;114243.06;4987910;28;20046;-80
2022/11/25 02:56:28;;;;;;;110.22;34.67;;;;;;;1.61;100.00;114913.84;4974770;28;20039;-78
2022/11/25 02:58:54;;;;;;;105.32;33.38;;;;;;;1.60;100.00;114248.75;4960017;28;20049;-79
2022/11/25 03:01:20;;;;;;;88.13;31.40;;;;;;;1.60;100.00;113583.75;4967265;28;20073;-77
2022/11/25 03:03:48;;;;;;;98.10;32.78;;;;;;;1.57;100.00;113910.09;4987801;28;20045;-78
2022/11/25 03:06:14;;;;;;;137.40;36.58;;;;;;;1.54;100.00;113574.34;4957079;28;20050;-79
2022/11/25 03:08:40;;;;;;;99.10;35.83;;;;;;;1.54;100.00;113573.38;4973400;28;20050;-77
2022/11/25 03:11:09;;;;;;;93.35;34.10;;;;;;;1.53;100.00;113240.50;4987783;28;20038;-79
2022/11/25 03:13:34;;;;;;;115.57;36.85;;;;;;;1.54;100.00;113573.38;4975025;28;20037;-77
2022/11/25 03:16:00;;;;;;;92.18;33.70;;;;;;;1.53;100.00;113572.47;4975094;28;20116;-77
2022/11/25 03:18:26;;;;;;;120.20;33.97;;;;;;;1.45;100.00;113225.53;4981790;28;20034;-77
2022/11/25 03:20:53;;;;;;;102.38;33.40;;;;;;;1.49;100.00;112569.25;4957544;28;20038;-78
2022/11/25 03:23:19;;;;;;;107.53;32.47;;;;;;;1.42;100.00;112224.41;4968314;28;20034;-79
2022/11/25 03:25:44;;;;;;;91.50;33.80;;;;;;;1.43;100.00;112225.31;4957386;28;20045;-78
2022/11/25 03:28:10;;;;;;;134.90;32.63;;;;;;;1.42;100.00;111560.88;4981979;28;20051;-78
2022/11/25 03:30:36;;;;;;;108.78;31.50;;;;;;;1.34;100.00;112874.00;4988181;28;20440;-76
2022/11/25 03:33:02;;;;;;;90.03;33.33;;;;;;;1.31;100.00;112867.47;4971360;28;20085;-75
2022/11/25 03:35:28;;;;;;;100.78;35.08;;;;;;;1.29;100.00;113527.31;4974445;28;20439;-79
2022/11/25 03:37:54;;;;;;;98.07;32.22;;;;;;;1.29;100.00;113527.31;5004383;28;20089;-79
2022/11/25 03:40:20;;;;;;;102.55;32.08;;;;;;;1.25;100.00;113520.72;4987666;28;20031;-76
2022/11/25 03:42:46;;;;;;;77.85;31.42;;;;;;;1.26;100.00;113522.63;4958228;28;20034;-77
2022/11/25 03:45:14;;;;;;;91.50;33.25;;;;;;;1.17;100.00;113838.41;4977146;28;20038;-79
2022/11/25 03:47:43;;;;;;;93.07;32.83;;;;;;;1.22;100.00;113846.88;4990673;28;20145;-79
2022/11/25 03:50:12;;;;;;;89.60;33.47;;;;;;;1.26;100.00;113521.66;4986032;28;20069;-79
2022/11/25 03:52:38;;;;;;;82.50;31.73;;;;;;;1.25;100.00;113520.72;4976497;28;20038;-77
2022/11/25 03:55:06;;;;;;;72.85;31.27;;;;;;;1.25;100.00;113852.53;4994023;28;20436;-77
2022/11/25 03:57:34;;;;;;;97.95;35.70;;;;;;;1.18;100.00;114502.97;4976391;28;20723;-78
2022/11/25 04:00:00;;;;;;;82.57;33.67;;;;;;;1.15;100.00;114497.28;4976616;28;20073;-78
2022/11/25 04:02:32;;;;;;;84.13;33.90;;;;;;;1.19;100.00;114503.91;4989891;28;20045;-76
2022/11/25 04:04:57;;;;;;;78.50;30.80;;;;;;;1.14;100.00;114495.38;4965077;28;20057;-78
2022/11/25 04:07:23;;;;;;;78.53;33.10;;;;;;;1.14;100.00;114828.16;4989487;28;20126;-77
2022/11/25 04:09:48;;;;;;;78.25;32.63;;;;;;;1.15;100.00;114165.47;4973036;28;20082;-77
2022/11/25 04:15:07;;;;;;;94.40;34.35;;;;;;;1.09;100.00;114486.84;4988793;28;20075;-77
2022/11/25 04:17:33;;;;;;;84.38;34.50;;;;;;;1.15;100.00;114165.47;4960099;28;20085;-78
2022/11/25 04:19:58;;;;;;;74.55;31.75;;;;;;;1.19;100.00;113840.25;4974956;28;20038;-76
2022/11/25 04:22:24;;;;;;;83.32;32.65;;;;;;;1.11;100.00;114489.69;4988292;28;20646;-78
2022/11/25 04:24:51;;;;;;;81.32;33.42;;;;;;;1.11;100.00;114157.88;4978093;28;20082;-77
2022/11/25 04:27:22;;;;;;;90.97;32.67;;;;;;;1.12;100.00;113828.97;4973796;28;20038;-75
2022/11/25 04:29:48;;;;;;;84.68;32.28;;;;;;;1.18;100.00;113175.81;4989818;28;20569;-75
2022/11/25 04:32:14;;;;;;;77.55;32.75;;;;;;;1.11;100.00;113495.34;4984784;28;20057;-76
2022/11/25 04:34:40;;;;;;;79.78;33.10;;;;;;;1.20;100.00;113511.31;4961991;28;20508;-77
2022/11/25 04:37:06;;;;;;;65.32;28.17;;;;;;;1.28;100.00;113193.63;4957542;28;20065;-75
2022/11/25 04:39:32;;;;;;;71.95;30.65;;;;;;;1.13;100.00;114161.66;4968226;28;20073;-77
2022/11/25 04:44:47;;;;;;;68.10;29.27;;;;;;;0.96;100.00;116784.88;4984646;28;20034;-78
2022/11/25 04:47:13;;;;;;;65.47;27.92;;;;;;;0.93;100.00;117443.91;4985815;28;20034;-77
2022/11/25 04:49:38;;;;;;;63.60;27.38;;;;;;;0.97;100.00;118115.69;4991560;28;20042;-76
2022/11/25 04:52:04;;;;;;;57.85;27.25;;;;;;;1.01;100.00;117457.53;4973439;28;20065;-77
2022/11/25 04:54:30;;;;;;;64.30;27.15;;;;;;;0.98;100.00;118116.69;4956100;28;20042;-78
2022/11/25 04:56:58;;;;;;;74.10;29.27;;;;;;;0.99;100.00;117453.66;4984217;28;20104;-77
2022/11/25 04:59:40;;;;;;;72.72;29.35;;;;;;;1.11;100.00;116149.03;4956726;28;20042;-78
2022/11/25 05:02:14;;;;;;;69.90;28.48;;;;;;;1.13;100.00;115821.94;4976557;28;20054;-76
2022/11/25 05:04:44;;;;;;;70.28;28.85;;;;;;;1.10;100.00;115483.31;4961918;28;20109;-77
2022/11/25 05:07:13;;;;;;;79.28;30.80;;;;;;;1.28;100.00;114189.09;4985193;28;20050;-78
2022/11/25 05:09:40;;;;;;;66.85;30.45;;;;;;;1.28;100.00;113857.25;4999623;28;20420;-78
2022/11/25 05:12:17;;;;;;;74.70;31.88;;;;;;;1.34;100.00;113536.72;4987660;28;20173;-79
2022/11/25 05:14:43;;;;;;;75.75;34.15;;;;;;;1.40;100.00;112884.28;4973204;28;20038;-75
2022/11/25 05:17:12;;;;;;;70.55;32.15;;;;;;;1.47;100.00;112897.38;4988203;28;20112;-77
2022/11/25 05:19:38;;;;;;;79.30;31.80;;;;;;;1.35;100.00;113539.53;4970854;28;20397;-77
2022/11/25 05:22:04;;;;;;;72.15;32.22;;;;;;;1.42;100.00;113883.69;4981981;28;20472;-77
2022/11/25 05:24:31;;;;;;;75.40;34.00;;;;;;;1.34;100.00;114864.34;4957457;28;20161;-77
2022/11/25 05:26:57;;;;;;;72.82;32.53;;;;;;;1.41;100.00;115208.72;4968355;28;20832;-77
2022/11/25 05:29:22;;;;;;;83.97;34.05;;;;;;;1.35;100.00;115531.16;4972966;28;20038;-76
2022/11/25 05:31:48;;;;;;;86.53;34.35;;;;;;;1.35;100.00;116194.31;4969660;28;20225;-76
2022/11/25 05:34:14;;;;;;;82.68;35.40;;;;;;;1.39;100.00;116866.25;4956946;28;20030;-77
2022/11/25 05:36:39;;;;;;;86.47;35.78;;;;;;;1.34;100.00;117188.72;4987633;28;20471;-78
2022/11/25 05:39:06;;;;;;;91.00;34.80;;;;;;;1.44;100.00;116875.94;4987185;28;20779;-77
2022/11/25 05:41:51;;;;;;;90.95;35.00;;;;;;;1.55;100.00;116231.88;4989708;28;20038;-76
2022/11/25 05:44:18;;;;;;;79.25;34.78;;;;;;;1.61;100.00;116574.69;4973662;28;20108;-76
2022/11/25 05:46:45;;;;;;;77.55;33.22;;;;;;;1.66;100.00;116584.38;4982329;28;20116;-76
2022/11/25 05:49:12;;;;;;;82.40;33.70;;;;;;;1.66;100.00;117581.28;4956263;28;20049;-75
2022/11/25 05:51:37;;;;;;;86.60;33.15;;;;;;;1.64;100.00;118906.94;4955838;28;20042;-76
2022/11/25 05:54:04;;;;;;;84.18;34.13;;;;;;;1.65;100.00;119907.38;4982260;28;20121;-79
2022/11/25 05:56:31;;;;;;;95.10;35.78;;;;;;;1.65;100.00;120239.91;4971702;28;20551;-76
2022/11/25 05:59:14;;;;;;;82.63;35.65;;;;;;;1.68;100.00;121575.44;4990337;28;20046;-77
2022/11/25 06:01:55;;;;;;;95.25;35.08;;;;;;;1.67;100.00;122904.34;4970220;28;20034;-78
2022/11/25 06:04:21;;;;;;;81.85;33.35;;;;;;;1.75;100.00;122587.84;4971638;28;20084;-78
2022/11/25 06:06:46;;;;;;;73.20;31.50;;;;;;;1.77;100.00;123257.59;4969571;28;20392;-77
2022/11/25 06:09:13;;;;;;;75.80;32.78;;;;;;;1.75;100.00;124585.16;4965579;28;20058;-77
2022/11/25 06:11:38;;;;;;;81.25;34.65;;;;;;;1.71;100.00;126243.03;4969488;28;20038;-77
2022/11/25 06:14:04;;;;;;;91.40;33.45;;;;;;;1.67;100.00;127566.00;4969217;28;20526;-77
2022/11/25 06:16:29;;;;;;;70.72;32.03;;;;;;;1.70;100.00;128572.03;4974591;28;20424;-77
2022/11/25 06:19:21;;;;;;;72.55;30.70;;;;;;;1.70;100.00;129571.97;4972027;28;20593;-78
2022/11/25 06:21:47;;;;;;;76.32;32.13;;;;;;;1.72;100.00;130577.53;4969990;28;20465;-78
2022/11/25 06:24:13;;;;;;;78.43;31.48;;;;;;;1.69;100.00;132572.00;4985522;28;20023;-77
2022/11/25 06:26:41;;;;;;;76.63;30.02;;;;;;;1.75;100.00;132917.75;4970495;28;20034;-79
2022/11/25 06:29:06;;;;;;;72.57;30.52;;;;;;;1.70;100.00;134908.91;4981556;28;20030;-79
2022/11/25 06:31:32;;;;;;;67.03;28.05;;;;;;;1.74;100.00;135920.53;4986266;28;20483;-78
2022/11/25 06:34:18;;;;;;;65.97;29.13;;;;;;;1.71;100.00;138250.31;4982284;28;20092;-78
2022/11/25 06:36:44;;;;;;;62.88;30.23;;;;;;;1.64;100.00;140238.75;4957589;28;20137;-77
2022/11/25 06:39:09;;;;;;;59.47;27.38;;;;;;;1.70;100.00;141589.84;4979962;28;20048;-77
2022/11/25 06:41:35;;;;;;;65.93;30.63;;;;;;;1.62;100.00;144246.00;4951700;28;20081;-78
2022/11/25 06:44:00;;;;;;;68.10;28.02;;;;;;;1.58;100.00;146763.94;4954131;28;20409;-79
2022/11/25 06:46:26;;;;;;;60.00;27.23;;;;;;;1.51;100.00;148557.59;4972345;28;20038;-76
2022/11/25 06:48:52;;;;;;;65.85;29.83;;;;;;;1.52;100.00;149523.88;4969003;28;20047;-78
2022/11/25 06:51:17;;;;;;;65.05;25.75;;;;;;;1.57;100.00;150316.22;4968913;28;20045;-77
2022/11/25 06:53:43;;;;;;;58.78;25.05;;;;;;;1.59;100.00;150873.44;4962087;28;20057;-78
2022/11/25 06:56:13;;;;;;;59.42;26.45;;;;;;;1.63;100.00;152019.59;4956504;28;20133;-77
2022/11/25 06:58:40;;;;;;;70.72;28.33;;;;;;;1.66;100.00;152798.31;4972889;28;20069;-76
2022/11/25 07:01:13;;;;;;;60.88;26.00;;;;;;;1.71;100.00;152973.44;4971592;28;20515;-78
2022/11/25 07:03:38;;;;;;;;;;;;;;;1.69;100.00;152967.03;4970252;28;20050;-78
2022/11/25 07:06:04;;;;;;;57.10;23.90;;;;;;;1.75;100.00;152982.34;5001873;28;20388;-78
2022/11/25 07:08:30;;;;;;;60.67;26.65;;;;;;;1.77;100.00;152987.44;4968224;28;20045;-77
2022/11/25 07:11:04;;;;;;;58.53;26.63;;;;;;;1.80;100.00;152993.84;4982295;28;20042;-78
2022/11/25 07:13:30;;;;;;;56.65;26.23;;;;;;;1.79;100.00;152991.28;4966071;28;20033;-78
2022/11/25 07:15:59;;;;;;;67.35;30.00;;;;;;;1.82;100.00;153000.19;4968245;28;20045;-77
2022/11/25 07:18:25;;;;;;;62.97;30.23;;;;;;;1.89;100.00;153016.78;4985773;28;20076;-79
2022/11/25 07:20:50;;;;;;;60.88;27.13;;;;;;;1.88;100.00;153014.22;5003648;28;20066;-78
2022/11/25 07:23:16;;;;;;;57.53;25.23;;;;;;;1.97;100.00;153035.94;4956500;28;20105;-80
2022/11/25 07:25:42;;;;;;;56.95;24.52;;;;;;;2.00;100.00;153044.84;4974111;28;20038;-77
2022/11/25 07:28:07;;;;;;;56.95;25.20;;;;;;;2.06;100.00;153058.88;4954475;28;20042;-77
2022/11/25 07:30:33;;;;;;;62.20;26.75;;;;;;;1.98;100.00;153039.75;4969304;28;20034;-77
2022/11/25 07:32:58;;;;;;;55.20;25.20;;;;;;;2.07;100.00;153061.41;4981974;28;20041;-77
2022/11/25 07:35:24;;;;;;;58.45;26.67;;;;;;;2.15;100.00;153081.84;4955009;28;20042;-79
2022/11/25 07:37:49;;;;;;;59.13;23.35;;;;;;;2.20;100.00;153094.56;4982744;28;20113;-78
2022/11/25 07:40:15;;;;;;;45.85;21.73;;;;;;;2.18;100.00;153089.47;4980567;28;20049;-78
2022/11/25 07:42:41;;;;;;;47.05;21.83;;;;;;;2.21;100.00;153095.88;4983846;28;20041;-78
2022/11/25 07:45:08;;;;;;;46.92;21.45;;;;;;;2.21;100.00;153095.88;4968740;28;20404;-78
2022/11/25 07:47:44;;;;;;;51.50;21.13;;;;;;;2.24;100.00;153103.50;4970178;28;20093;-78
2022/11/25 07:50:10;;;;;;;53.83;22.15;;;;;;;2.21;100.00;153095.88;4956932;28;20034;-77
2022/11/25 07:52:39;;;;;;;50.58;22.40;;;;;;;2.25;100.00;153106.09;4952977;28;20042;-78
2022/11/25 07:55:05;;;;;;;46.53;20.30;;;;;;;2.26;100.00;153109.91;4998333;28;20763;-76
2022/11/25 07:57:31;;;;;;;48.80;21.35;;;;;;;2.21;100.00;153095.88;4971299;28;20038;-78
2022/11/25 07:59:56;;;;;;;52.03;19.58;;;;;;;2.22;100.00;153099.66;4971289;28;20036;-78
2022/11/25 08:02:22;;;;;;;50.45;21.10;;;;;;;2.28;100.00;153113.72;4953279;28;20933;-76
2022/11/25 08:04:47;;;;;;;43.63;21.52;;;;;;;2.31;100.00;153122.66;4958215;28;20053;-78
2022/11/25 08:07:13;;;;;;;44.78;21.27;;;;;;;2.34;100.00;153130.31;4969203;28;20532;-78
2022/11/25 08:09:38;;;;;;;46.42;21.55;;;;;;;2.33;100.00;153126.47;4969443;28;20045;-78
2022/11/25 08:12:04;;;;;;;49.13;20.85;;;;;;;2.30;100.00;153120.13;4984421;28;20524;-78
2022/11/25 08:14:30;;;;;;;41.70;19.48;;;;;;;2.25;100.00;153107.34;4971928;28;20109;-79
2022/11/25 08:16:55;;;;;;;40.28;20.27;;;;;;;2.29;100.00;153117.53;4957717;28;20473;-79
2022/11/25 08:19:21;;;;;;;42.63;19.80;;;;;;;2.29;100.00;153116.28;4970605;28;21043;-78
2022/11/25 08:21:46;;;;;;;42.33;18.58;;;;;;;2.32;100.00;153125.22;4957424;28;20046;-78
2022/11/25 08:24:16;;;;;;;35.10;18.75;;;;;;;2.36;100.00;153132.88;4986440;28;20054;-81
2022/11/25 08:26:41;;;;;;;39.03;17.70;;;;;;;2.42;100.00;153149.44;4951410;28;20035;-79
2022/11/25 08:29:08;;;;;;;36.78;18.15;;;;;;;2.42;100.00;153149.44;4988322;28;20088;-77
2022/11/25 08:31:36;;;;;;;35.05;17.73;;;;;;;2.39;100.00;153140.50;4975978;28;20069;-79
2022/11/25 08:34:04;;;;;;;38.47;19.00;;;;;;;2.44;100.00;153153.28;4973505;28;20039;-78
2022/11/25 08:36:30;;;;;;;35.30;17.88;;;;;;;2.43;100.00;153152.03;4974238;28;20766;-78
2022/11/25 08:38:59;;;;;;;43.58;19.00;;;;;;;2.46;100.00;153159.66;4959183;28;20092;-80
2022/11/25 08:41:30;;;;;;;47.38;20.45;;;;;;;2.47;100.00;153162.22;4989567;28;20043;-80
2022/11/25 08:43:58;;;;;;;38.45;19.25;;;;;;;2.55;100.00;153180.09;4990404;28;20041;-78
2022/11/25 08:46:26;;;;;;;41.35;19.00;;;;;;;2.60;100.00;153194.13;4993016;28;20027;-77
2022/11/25 08:48:52;;;;;;;39.15;18.23;;;;;;;2.62;100.00;153199.22;4992376;28;20038;-80
2022/11/25 08:51:27;;;;;;;36.33;19.20;;;;;;;2.61;100.00;153195.38;4990755;28;20125;-77
2022/11/25 08:53:52;;;;;;;35.40;19.10;;;;;;;2.61;100.00;153195.38;4975090;28;20125;-78
2022/11/25 08:56:20;;;;;;;37.40;18.63;;;;;;;2.63;100.00;153201.75;4981388;28;20126;-77
2022/11/25 08:58:45;;;;;;;46.17;20.70;;;;;;;2.59;100.00;153191.56;4968956;28;20042;-77
2022/11/25 09:01:11;;;;;;;42.42;17.95;;;;;;;2.64;100.00;153204.31;4988878;28;20041;-77
2022/11/25 09:03:40;;;;;;;38.45;20.05;;;;;;;2.63;100.00;153200.50;4990109;28;20404;-77
2022/11/25 09:06:08;;;;;;;33.35;18.63;;;;;;;2.69;100.00;153217.09;4975932;28;20157;-77
2022/11/25 09:08:34;;;;;;;36.28;18.60;;;;;;;2.71;100.00;153220.88;4974739;28;20105;-77
2022/11/25 09:10:59;;;;;;;34.67;18.00;;;;;;;2.82;100.00;153248.97;4975149;28;20496;-77
2022/11/25 09:13:25;;;;;;;31.75;17.48;;;;;;;2.87;100.00;153261.75;4972238;28;20408;-77
2022/11/25 09:15:51;;;;;;;30.58;16.88;;;;;;;2.98;100.00;153288.56;4977046;28;20108;-76
2022/11/25 09:18:19;;;;;;;35.38;16.55;;;;;;;3.01;100.00;153296.19;4992724;28;20268;-79
2022/11/25 09:20:46;;;;;;;29.02;15.50;;;;;;;3.10;100.00;153319.16;4992681;28;20030;-77
2022/11/25 09:23:12;;;;;;;34.88;16.20;;;;;;;3.11;100.00;153321.75;4993459;28;20033;-78
2022/11/25 09:25:38;;;;;;;31.50;16.10;;;;;;;3.06;100.00;153307.69;5003059;28;20037;-79
2022/11/25 09:28:03;;;;;;;31.02;15.02;;;;;;;3.14;100.00;153328.09;4992693;28;20031;-78
2022/11/25 09:30:30;;;;;;;30.25;15.50;;;;;;;3.14;100.00;153326.84;4990499;28;20054;-77
2022/11/25 09:32:55;;;;;;;30.17;14.77;;;;;;;3.11;100.00;153320.47;4975513;28;20774;-78
2022/11/25 09:35:23;;;;;;;32.90;15.50;;;;;;;3.09;100.00;153315.38;4989009;28;20058;-76
2022/11/25 09:37:49;;;;;;;30.08;16.98;;;;;;;3.03;100.00;153301.34;4992340;28;20081;-77
2022/11/25 09:40:46;;;;;;;29.90;15.50;;;;;;;3.01;100.00;153296.19;4984536;28;20045;-78
2022/11/25 09:47:03;;;;;;;34.30;16.50;;;;;;;3.02;100.00;153297.50;4975239;28;20049;-76
2022/11/25 09:49:44;;;;;;;30.48;15.98;;;;;;;3.06;100.00;153308.97;4973654;28;20050;-77
2022/11/25 09:52:22;;;;;;;31.83;16.15;;;;;;;3.07;100.00;153310.22;4988233;28;20126;-77
2022/11/25 09:55:15;;;;;;;37.72;16.17;;;;;;;3.05;100.00;153305.13;4960297;28;20053;-76
2022/11/25 09:57:54;;;;;;;34.00;17.00;;;;;;;3.08;100.00;153312.78;4972540;28;20046;-77
2022/11/25 10:00:20;;;;;;;40.78;19.52;;;;;;;3.07;100.00;153310.22;4962851;28;20512;-77
2022/11/25 10:03:03;;;;;;;39.53;16.40;;;;;;;3.02;100.00;153298.75;4972839;28;20061;-77
2022/11/25 10:05:46;;;;;;;33.08;15.90;;;;;;;3.04;100.00;153303.84;4975194;28;20042;-75
2022/11/25 10:08:16;;;;;;;42.28;20.33;;;;;;;3.03;100.00;153300.03;4972441;28;20038;-76
2022/11/25 10:10:50;;;;;;;59.17;29.58;;;;;;;3.04;100.00;153303.84;4972897;28;20042;-76
2022/11/25 10:13:31;;;;;;;45.20;21.17;;;;;;;3.07;100.00;153310.22;4988542;28;20036;-77
2022/11/25 10:16:02;;;;;;;33.65;18.90;;;;;;;3.07;100.00;153311.53;4974808;28;20042;-75
2022/11/25 10:18:37;;;;;;;46.40;24.27;;;;;;;3.10;100.00;153319.16;4973187;28;20045;-76
2022/11/25 10:21:03;;;;;;;35.53;18.00;;;;;;;3.15;100.00;153330.69;4989169;28;20034;-75
2022/11/25 10:23:34;;;;;;;39.05;20.40;;;;;;;3.19;100.00;153340.88;4991412;28;20034;-76
2022/11/25 10:26:13;;;;;;;37.00;16.55;;;;;;;3.20;100.00;153342.16;4970902;28;20100;-76
2022/11/25 10:28:46;;;;;;;46.42;20.98;;;;;;;3.19;100.00;153339.63;4988282;28;20480;-76
2022/11/25 10:31:17;;;;;;;36.60;16.80;;;;;;;3.24;100.00;153353.66;5006086;28;20041;-78
2022/11/25 10:33:57;;;;;;;38.55;16.08;;;;;;;3.22;100.00;153348.56;4989457;28;20038;-75
2022/11/25 10:36:27;;;;;;;32.50;14.60;;;;;;;3.33;100.00;153375.34;4990270;28;20045;-77
2022/11/25 10:39:27;;;;;;;28.13;14.35;;;;;;;3.37;100.00;153385.59;4988494;28;20071;-76
2022/11/25 10:42:06;;;;;;;30.27;14.82;;;;;;;3.40;100.00;153391.94;4999016;28;20049;-75
2022/11/25 10:44:37;;;;;;;30.00;15.73;;;;;;;3.35;100.00;153379.19;4974108;28;20059;-78
2022/11/25 10:47:32;;;;;;;29.92;15.07;;;;;;;3.43;100.00;153400.91;4959759;28;20026;-76
2022/11/25 10:50:16;;;;;;;26.48;14.48;;;;;;;3.41;100.00;153395.78;4984498;28;20034;-75
2022/11/25 10:52:58;;;;;;;35.70;17.35;;;;;;;3.39;100.00;153389.38;4952993;28;20468;-75
2022/11/25 10:55:27;;;;;;;53.85;15.50;;;;;;;3.47;100.00;153411.09;4960562;28;20030;-76
2022/11/25 10:57:54;;;;;;;37.95;16.23;;;;;;;3.46;100.00;153407.25;4989486;28;20089;-76
2022/11/25 11:00:31;;;;;;;34.42;15.63;;;;;;;3.52;100.00;153422.56;4972028;28;20042;-77
2022/11/25 11:02:58;;;;;;;33.08;14.88;;;;;;;3.57;100.00;153435.34;4982952;28;20574;-76
2022/11/25 11:05:28;;;;;;;30.25;14.80;;;;;;;3.61;100.00;153445.56;4986937;28;20034;-76
2022/11/25 11:08:12;;;;;;;35.55;16.10;;;;;;;3.65;100.00;153454.50;4970494;28;20047;-76
2022/11/25 11:10:38;;;;;;;29.17;13.63;;;;;;;3.66;100.00;153458.34;4982927;28;20061;-76
2022/11/25 11:13:16;;;;;;;29.42;13.88;;;;;;;3.67;100.00;153460.91;4969053;28;20505;-77
2022/11/25 11:15:41;;;;;;;41.70;23.38;;;;;;;3.74;100.00;153476.22;4953499;28;20495;-75
2022/11/25 11:18:22;;;;;;;43.47;24.25;;;;;;;3.75;100.00;153478.75;4987814;28;20037;-75
2022/11/25 11:20:50;;;;;;;30.23;14.55;;;;;;;3.80;100.00;153492.81;4967384;28;20046;-74
2022/11/25 11:23:16;;;;;;;38.10;16.17;;;;;;;3.84;100.00;153501.75;4968403;28;20026;-75
2022/11/25 11:25:55;;;;;;;36.60;15.10;;;;;;;3.85;100.00;153505.59;4974329;28;20038;-78
2022/11/25 11:28:29;;;;;;;28.38;13.48;;;;;;;3.86;100.00;153508.16;4975445;28;20041;-77